createdAt,value
2024-04-17T00:03:47.783Z,64.23
2024-04-17T00:08:53.941Z,65.05
2024-04-17T00:13:57.197Z,65.82
2024-04-17T00:19:00.472Z,64.72
2024-04-17T00:24:06.859Z,66.21
2024-04-17T00:29:10.057Z,67.37
2024-04-17T00:34:13.147Z,68.95
2024-04-17T00:39:19.054Z,68.84
2024-04-17T00:44:22.190Z,67.50
2024-04-17T00:49:25.395Z,66.84
2024-04-17T00:54:31.971Z,65.71
2024-04-17T00:59:35.265Z,66.77
2024-04-17T01:04:38.378Z,66.53
2024-04-17T01:09:44.850Z,67.69
2024-04-17T01:14:47.988Z,68.80
2024-04-17T01:19:51.198Z,69.62
2024-04-17T01:24:57.243Z,69.79
2024-04-17T01:30:00.467Z,70.39
2024-04-17T01:35:03.719Z,71.26
2024-04-17T01:40:11.084Z,71.65
2024-04-17T01:45:14.448Z,72.08
2024-04-17T01:50:28.271Z,72.65
2024-04-17T01:55:34.440Z,72.65
2024-04-17T02:00:37.898Z,73.50
2024-04-17T02:05:41.063Z,73.06
2024-04-17T02:10:47.541Z,73.44
2024-04-17T02:15:50.817Z,73.58
2024-04-17T02:20:53.974Z,74.42
2024-04-17T02:25:59.998Z,74.92
2024-04-17T02:31:03.200Z,74.21
2024-04-17T02:36:06.934Z,74.99
2024-04-17T02:41:12.904Z,75.15
2024-04-17T02:46:16.075Z,76.23
2024-04-17T02:51:19.232Z,75.81
2024-04-17T02:56:25.275Z,75.95
2024-04-17T03:01:28.428Z,76.02
2024-04-17T03:06:31.565Z,76.66
2024-04-17T03:11:37.654Z,78.01
2024-04-17T03:16:40.838Z,78.73
2024-04-17T03:21:43.947Z,79.05
2024-04-17T03:26:51.552Z,79.43
2024-04-17T03:31:54.786Z,79.24
2024-04-17T03:36:57.957Z,78.42
2024-04-17T03:42:03.866Z,78.84
2024-04-17T03:47:07.147Z,82.37
2024-04-17T03:52:10.280Z,82.74
2024-04-17T03:57:16.166Z,81.92
2024-04-17T04:02:19.482Z,81.04
2024-04-17T04:07:22.919Z,82.52
2024-04-17T04:12:29.168Z,81.87
2024-04-17T04:17:32.374Z,81.61
2024-04-17T04:22:35.628Z,80.75
2024-04-17T04:27:41.817Z,79.19
2024-04-17T04:32:44.943Z,79.02
2024-04-17T04:37:48.111Z,76.95
2024-04-17T04:42:54.036Z,76.05
2024-04-17T04:47:57.216Z,76.91
2024-04-17T04:53:00.417Z,76.79
2024-04-17T04:58:06.491Z,75.72
2024-04-17T05:06:14.489Z,75.85
2024-04-17T05:11:17.588Z,75.92
2024-04-17T05:16:20.745Z,75.10
2024-04-17T05:21:26.617Z,75.64
2024-04-17T05:26:29.779Z,75.03
2024-04-17T05:31:32.915Z,76.02
2024-04-17T05:36:38.836Z,76.55
2024-04-17T05:41:41.937Z,75.93
2024-04-17T05:46:45.027Z,75.25
2024-04-17T05:51:51.516Z,74.94
2024-04-17T05:56:55.799Z,75.67
2024-04-17T06:01:58.868Z,75.50
2024-04-17T06:07:05.138Z,75.51
2024-04-17T06:12:08.415Z,75.64
2024-04-17T06:17:11.768Z,76.01
2024-04-17T06:22:17.664Z,76.02
2024-04-17T06:27:21.071Z,76.11
2024-04-17T06:32:24.343Z,76.40
2024-04-17T06:37:30.286Z,76.95
2024-04-17T06:42:33.371Z,76.85
2024-04-17T06:47:36.607Z,77.15
2024-04-17T06:52:42.569Z,77.58
2024-04-17T06:57:45.715Z,77.62
2024-04-17T07:02:52.499Z,77.94
2024-04-17T07:08:05.289Z,77.99
2024-04-17T07:13:08.586Z,78.11
2024-04-17T07:18:11.689Z,77.87
2024-04-17T07:23:17.696Z,76.77
2024-04-17T07:28:20.815Z,77.58
2024-04-17T07:33:24.199Z,78.14
2024-04-17T07:38:30.291Z,77.25
2024-04-17T07:43:33.828Z,77.68
2024-04-17T07:48:37.264Z,77.73
2024-04-17T07:53:43.308Z,76.62
2024-04-17T07:58:46.439Z,76.86
2024-04-17T08:03:49.696Z,76.18
2024-04-17T08:08:56.098Z,76.04
2024-04-17T08:13:59.194Z,75.33
2024-04-17T08:19:02.298Z,74.99
2024-04-17T08:24:08.386Z,75.60
2024-04-17T08:29:11.532Z,74.88
2024-04-17T08:34:14.653Z,74.78
2024-04-17T08:39:20.775Z,74.29
2024-04-17T08:44:30.962Z,74.44
2024-04-17T08:49:35.661Z,74.39
2024-04-17T08:54:42.012Z,73.35
2024-04-17T08:59:46.570Z,73.60
2024-04-17T09:04:50.930Z,73.21
2024-04-17T09:09:57.461Z,73.18
2024-04-17T09:15:00.900Z,73.37
2024-04-17T09:20:04.184Z,73.38
2024-04-17T09:25:17.249Z,73.67
2024-04-17T09:30:20.864Z,74.06
2024-04-17T09:35:24.510Z,74.50
2024-04-17T09:40:31.083Z,74.24
2024-04-17T09:45:37.455Z,74.29
2024-04-17T09:50:42.914Z,73.56
2024-04-17T09:55:49.657Z,73.63
2024-04-17T10:00:53.814Z,73.60
2024-04-17T10:05:57.410Z,74.34
2024-04-17T10:11:04.277Z,75.34
2024-04-17T10:16:09.485Z,75.57
2024-04-17T10:21:19.778Z,75.56
2024-04-17T10:26:25.786Z,74.88
2024-04-17T10:31:35.834Z,74.83
2024-04-17T10:36:39.322Z,75.36
2024-04-17T10:41:45.477Z,74.92
2024-04-17T10:46:48.686Z,74.79
2024-04-17T10:51:51.919Z,74.70
2024-04-17T10:56:59.435Z,75.06
2024-04-17T11:02:02.543Z,75.19
2024-04-17T11:07:08.726Z,75.40
2024-04-17T11:12:17.750Z,75.54
2024-04-17T11:17:21.523Z,75.36
2024-04-17T11:22:25.874Z,75.59
2024-04-17T11:27:32.070Z,76.02
2024-04-17T11:32:35.450Z,75.70
2024-04-17T11:37:38.980Z,75.24
2024-04-17T11:42:45.300Z,75.49
2024-04-17T11:47:48.497Z,74.50
2024-04-17T11:52:51.644Z,74.73
2024-04-17T11:57:58.346Z,75.36
2024-04-17T12:03:01.587Z,75.86
2024-04-17T12:08:05.297Z,75.15
2024-04-17T12:13:11.539Z,75.51
2024-04-17T12:18:14.693Z,75.10
2024-04-17T12:23:18.021Z,74.95
2024-04-17T12:28:23.993Z,73.06
2024-04-17T12:33:27.146Z,73.63
2024-04-17T12:38:30.463Z,73.20
2024-04-17T12:43:36.808Z,73.29
2024-04-17T12:48:40.023Z,73.86
2024-04-17T12:53:43.168Z,74.44
2024-04-17T12:58:49.885Z,73.65
2024-04-17T13:03:53.043Z,73.84
2024-04-17T13:08:56.128Z,73.72
2024-04-17T13:14:02.377Z,73.50
2024-04-17T13:19:06.185Z,73.70
2024-04-17T13:24:09.523Z,72.71
2024-04-17T13:29:15.714Z,72.66
2024-04-17T13:34:20.529Z,72.34
2024-04-17T13:39:24.215Z,71.02
2024-04-17T13:44:30.080Z,70.84
2024-04-17T13:49:33.373Z,70.83
2024-04-17T13:54:36.534Z,69.82
2024-04-17T13:59:42.640Z,69.08
2024-04-17T14:04:45.749Z,68.53
2024-04-17T14:09:52.731Z,67.81
2024-04-17T14:15:01.513Z,66.53
2024-04-17T14:20:04.806Z,66.55
2024-04-17T14:25:08.465Z,65.16
2024-04-17T14:30:14.968Z,66.24
2024-04-17T14:35:18.637Z,65.09
2024-04-17T14:40:21.767Z,63.73
2024-04-17T14:45:27.689Z,63.28
2024-04-17T14:50:30.768Z,61.68
2024-04-17T14:55:33.872Z,60.07
2024-04-17T15:00:46.909Z,58.54
2024-04-17T15:05:50.439Z,56.94
2024-04-17T15:11:04.501Z,56.85
2024-04-17T15:16:11.879Z,56.69
2024-04-17T15:21:16.127Z,55.97
2024-04-17T15:26:20.232Z,57.20
2024-04-17T15:31:26.199Z,55.02
2024-04-17T15:36:29.441Z,54.34
2024-04-17T15:41:32.803Z,53.72
2024-04-17T15:46:38.724Z,51.89
2024-04-17T15:51:41.865Z,52.93
2024-04-17T15:56:45.001Z,52.20
2024-04-17T16:01:51.024Z,52.16
2024-04-17T16:06:54.249Z,51.29
2024-04-17T16:11:57.379Z,51.76
2024-04-17T16:17:03.353Z,50.27
2024-04-17T16:22:06.757Z,50.09
2024-04-17T16:27:09.897Z,50.05
2024-04-17T16:32:15.883Z,49.58
2024-04-17T16:37:19.022Z,47.21
2024-04-17T16:42:22.210Z,46.88
2024-04-17T16:47:28.284Z,46.23
2024-04-17T16:52:31.593Z,44.00
2024-04-17T16:57:34.888Z,42.98
2024-04-17T17:02:42.584Z,41.25
2024-04-17T17:07:45.704Z,41.80
2024-04-17T17:12:48.798Z,42.11
2024-04-17T17:17:54.825Z,37.27
2024-04-17T17:22:58.222Z,38.67
2024-04-17T17:28:01.261Z,39.43
2024-04-17T17:33:07.318Z,41.19
2024-04-17T17:38:10.506Z,36.94
2024-04-17T17:43:13.579Z,38.54
2024-04-17T17:48:19.962Z,38.91
2024-04-17T17:53:22.672Z,36.91
2024-04-17T17:58:25.872Z,34.82
2024-04-17T18:03:31.845Z,35.21
2024-04-17T18:08:35.741Z,35.74
2024-04-17T18:13:38.827Z,35.20
2024-04-17T18:18:44.759Z,33.19
2024-04-17T18:23:49.854Z,34.44
2024-04-17T18:28:54.231Z,36.84
2024-04-17T18:34:00.605Z,35.73
2024-04-17T18:39:03.883Z,36.37
2024-04-17T18:44:06.980Z,36.47
2024-04-17T18:49:12.889Z,32.03
2024-04-17T18:54:16.228Z,32.58
2024-04-17T18:59:19.320Z,33.18
2024-04-17T19:04:25.337Z,30.69
2024-04-17T19:09:27.990Z,31.13
2024-04-17T19:14:31.280Z,31.79
2024-04-17T19:19:37.161Z,31.71
2024-04-17T19:24:40.459Z,28.62
2024-04-17T19:29:53.973Z,28.70
2024-04-17T19:35:08.225Z,27.92
2024-04-17T19:40:11.830Z,29.61
2024-04-17T19:45:15.018Z,29.94
2024-04-17T19:50:20.928Z,29.41
2024-04-17T19:55:24.069Z,30.74
2024-04-17T20:00:27.210Z,28.00
2024-04-17T20:05:33.477Z,29.58
2024-04-17T20:10:36.943Z,31.12
2024-04-17T20:15:40.203Z,30.87
2024-04-17T20:20:55.886Z,31.77
2024-04-17T20:26:03.895Z,31.04
2024-04-17T20:31:09.156Z,31.35
2024-04-17T20:36:15.739Z,32.61
2024-04-17T20:41:18.941Z,31.48
2024-04-17T20:46:22.053Z,32.37
2024-04-17T20:51:27.993Z,30.78
2024-04-17T20:56:31.058Z,31.71
2024-04-17T21:01:37.210Z,31.83
2024-04-17T21:06:45.983Z,31.10
2024-04-17T21:11:51.077Z,30.12
2024-04-17T21:16:55.453Z,29.73
2024-04-17T21:22:01.472Z,27.69
2024-04-17T21:27:07.490Z,28.59
2024-04-17T21:32:10.599Z,29.05
2024-04-17T21:37:19.433Z,26.16
2024-04-17T21:42:22.857Z,26.82
2024-04-17T21:47:26.224Z,28.16
2024-04-17T21:52:32.257Z,26.83
2024-04-17T21:57:35.460Z,27.50
2024-04-17T22:02:39.615Z,28.92
2024-04-17T22:07:46.858Z,29.62
2024-04-17T22:12:50.106Z,26.79
2024-04-17T22:17:55.407Z,27.44
2024-04-17T22:23:01.418Z,30.19
2024-04-17T22:28:06.063Z,27.91
2024-04-17T22:33:09.616Z,29.17
2024-04-17T22:38:15.655Z,27.71
2024-04-17T22:43:18.751Z,26.35
2024-04-17T22:48:22.011Z,30.20
2024-04-17T22:53:28.092Z,29.77
2024-04-17T22:58:31.232Z,29.94
2024-04-17T23:03:34.402Z,29.59
2024-04-17T23:08:40.616Z,30.33
2024-04-17T23:13:43.118Z,31.33
2024-04-17T23:18:46.272Z,29.36
2024-04-17T23:23:52.177Z,31.26
2024-04-17T23:28:56.360Z,30.78
2024-04-17T23:33:59.477Z,32.33
2024-04-17T23:39:05.500Z,31.15
2024-04-17T23:44:08.634Z,33.48
2024-04-17T23:49:12.511Z,34.46
2024-04-17T23:54:18.654Z,35.44
2024-04-17T23:59:21.812Z,36.63
